createdAt,value
2022-07-29T00:00:10.497Z,19.78
2022-07-29T00:01:08.533Z,19.83
2022-07-29T00:02:09.495Z,19.72
2022-07-29T00:03:08.617Z,19.86
2022-07-29T00:04:08.653Z,19.78
2022-07-29T00:05:08.541Z,19.72
2022-07-29T00:06:08.664Z,19.70
2022-07-29T00:07:08.505Z,19.78
2022-07-29T00:08:12.433Z,19.73
2022-07-29T00:09:09.493Z,19.80
2022-07-29T00:10:08.476Z,19.73
2022-07-29T00:11:08.483Z,19.76
2022-07-29T00:12:09.473Z,19.68
2022-07-29T00:13:08.501Z,19.58
2022-07-29T00:14:08.482Z,19.57
2022-07-29T00:15:08.475Z,19.54
2022-07-29T00:16:08.446Z,19.38
2022-07-29T00:17:08.422Z,19.13
2022-07-29T00:18:08.454Z,19.02
2022-07-29T00:19:08.500Z,19.06
2022-07-29T00:20:08.408Z,19.10
2022-07-29T00:21:08.452Z,18.83
2022-07-29T00:22:08.398Z,18.83
2022-07-29T00:23:08.445Z,18.76
2022-07-29T00:24:10.426Z,18.62
2022-07-29T00:25:08.489Z,18.70
2022-07-29T00:26:08.365Z,18.73
2022-07-29T00:27:08.502Z,18.83
2022-07-29T00:28:08.357Z,18.84
2022-07-29T00:29:37.930Z,18.82
2022-07-29T00:30:10.277Z,18.82
2022-07-29T00:31:08.362Z,18.97
2022-07-29T00:32:08.326Z,18.87
2022-07-29T00:33:09.217Z,18.90
2022-07-29T00:34:09.747Z,18.91
2022-07-29T00:35:08.242Z,19.01
2022-07-29T00:36:08.215Z,19.02
2022-07-29T00:37:08.247Z,19.13
2022-07-29T00:38:08.217Z,19.20
2022-07-29T00:39:08.282Z,19.21
2022-07-29T00:40:08.306Z,19.02
2022-07-29T00:41:08.263Z,18.97
2022-07-29T00:42:08.195Z,19.01
2022-07-29T00:43:08.256Z,19.06
2022-07-29T00:44:08.298Z,18.87
2022-07-29T00:45:08.291Z,18.67
2022-07-29T00:46:08.338Z,18.59
2022-07-29T00:47:08.314Z,18.58
2022-07-29T00:48:09.102Z,18.61
2022-07-29T00:49:08.229Z,18.65
2022-07-29T00:50:08.342Z,18.61
2022-07-29T00:51:08.206Z,18.61
2022-07-29T00:52:08.185Z,18.62
2022-07-29T00:53:08.169Z,18.72
2022-07-29T00:54:08.204Z,18.76
2022-07-29T00:55:08.756Z,18.83
2022-07-29T00:56:09.201Z,18.87
2022-07-29T00:57:08.138Z,18.86
2022-07-29T00:58:08.142Z,19.02
2022-07-29T00:59:08.109Z,19.01
2022-07-29T01:00:08.122Z,18.92
2022-07-29T01:01:09.097Z,18.92
2022-07-29T01:02:08.185Z,18.98
2022-07-29T01:03:08.115Z,19.08
2022-07-29T01:04:08.112Z,19.05
2022-07-29T01:05:08.135Z,19.18
2022-07-29T01:06:08.147Z,19.08
2022-07-29T01:07:08.148Z,19.11
2022-07-29T01:08:08.046Z,19.14
2022-07-29T01:09:08.133Z,19.21
2022-07-29T01:11:03.454Z,19.20
2022-07-29T01:11:09.002Z,19.13
2022-07-29T01:12:08.028Z,19.20
2022-07-29T01:13:08.520Z,19.24
2022-07-29T01:14:08.029Z,19.15
2022-07-29T01:15:08.036Z,19.28
2022-07-29T01:16:08.132Z,19.17
2022-07-29T01:17:08.006Z,19.21
2022-07-29T01:18:08.003Z,19.25
2022-07-29T01:19:08.024Z,19.29
2022-07-29T01:20:07.988Z,19.29
2022-07-29T01:21:07.985Z,19.24
2022-07-29T01:22:07.991Z,19.23
2022-07-29T01:23:07.972Z,19.28
2022-07-29T01:24:07.959Z,19.21
2022-07-29T01:25:07.921Z,19.18
2022-07-29T01:26:07.939Z,19.18
2022-07-29T01:27:07.932Z,19.11
2022-07-29T01:28:07.860Z,19.17
2022-07-29T01:29:08.330Z,19.17
2022-07-29T01:30:07.870Z,19.24
2022-07-29T01:31:07.949Z,19.25
2022-07-29T01:32:07.927Z,19.20
2022-07-29T01:33:08.852Z,19.15
2022-07-29T01:34:07.859Z,19.23
2022-07-29T01:35:07.874Z,19.20
2022-07-29T01:36:08.025Z,19.15
2022-07-29T01:37:08.039Z,19.05
2022-07-29T01:38:07.842Z,19.13
2022-07-29T01:39:07.850Z,19.17
2022-07-29T01:40:07.850Z,19.14
2022-07-29T01:41:07.841Z,19.17
2022-07-29T01:42:07.841Z,18.92
2022-07-29T01:43:07.844Z,18.99
2022-07-29T01:44:07.857Z,18.94
2022-07-29T01:45:07.836Z,19.06
2022-07-29T01:46:07.896Z,19.10
2022-07-29T01:47:07.778Z,19.02
2022-07-29T01:48:07.822Z,18.90
2022-07-29T01:49:07.860Z,18.86
2022-07-29T01:50:07.803Z,18.76
2022-07-29T01:51:07.807Z,18.77
2022-07-29T01:52:07.741Z,18.65
2022-07-29T01:53:07.857Z,18.49
2022-07-29T01:54:07.719Z,18.46
2022-07-29T01:55:07.675Z,18.50
2022-07-29T01:56:07.639Z,18.37
2022-07-29T01:57:08.160Z,18.27
2022-07-29T01:58:07.679Z,18.28
2022-07-29T01:59:07.689Z,18.33
2022-07-29T02:00:07.657Z,18.33
2022-07-29T02:01:07.633Z,18.46
2022-07-29T02:02:07.728Z,18.47
2022-07-29T02:03:07.758Z,18.50
2022-07-29T02:04:07.719Z,18.43
2022-07-29T02:05:07.733Z,18.42
2022-07-29T02:06:07.653Z,18.31
2022-07-29T02:07:07.679Z,18.15
2022-07-29T02:08:07.686Z,18.17
2022-07-29T02:09:08.346Z,18.00
2022-07-29T02:10:07.674Z,17.92
2022-07-29T02:11:07.659Z,17.87
2022-07-29T02:12:07.693Z,17.79
2022-07-29T02:13:07.628Z,17.70
2022-07-29T02:14:07.712Z,17.59
2022-07-29T02:15:07.597Z,17.46
2022-07-29T02:16:07.766Z,17.46
2022-07-29T02:17:07.582Z,17.36
2022-07-29T02:18:07.659Z,17.28
2022-07-29T02:19:07.608Z,17.38
2022-07-29T02:20:07.669Z,17.28
2022-07-29T02:21:07.568Z,17.18
2022-07-29T02:22:08.571Z,17.14
2022-07-29T02:23:07.539Z,17.11
2022-07-29T02:24:07.515Z,17.10
2022-07-29T02:25:07.516Z,17.22
2022-07-29T02:26:08.461Z,17.25
2022-07-29T02:27:07.449Z,17.33
2022-07-29T02:28:07.501Z,17.30
2022-07-29T02:29:07.513Z,17.29
2022-07-29T02:30:07.515Z,17.28
2022-07-29T02:31:07.561Z,17.29
2022-07-29T02:32:07.447Z,17.36
2022-07-29T02:33:07.477Z,17.35
2022-07-29T02:34:07.460Z,17.41
2022-07-29T02:35:07.526Z,17.50
2022-07-29T02:36:07.441Z,17.50
2022-07-29T02:37:08.445Z,17.47
2022-07-29T02:38:07.438Z,17.48
2022-07-29T02:39:07.493Z,17.43
2022-07-29T02:40:07.493Z,17.40
2022-07-29T02:41:07.506Z,17.44
2022-07-29T02:42:07.388Z,17.38
2022-07-29T02:43:07.488Z,17.35
2022-07-29T02:44:08.375Z,17.43
2022-07-29T02:45:07.414Z,17.41
2022-07-29T02:46:12.766Z,17.44
2022-07-29T02:47:08.319Z,17.47
2022-07-29T02:48:07.363Z,17.40
2022-07-29T02:49:07.391Z,17.35
2022-07-29T02:50:07.353Z,17.38
2022-07-29T02:51:07.387Z,17.40
2022-07-29T02:52:07.349Z,17.29
2022-07-29T02:53:07.337Z,17.29
2022-07-29T02:54:07.275Z,17.23
2022-07-29T02:55:07.265Z,17.15
2022-07-29T02:56:07.423Z,17.13
2022-07-29T02:57:07.283Z,17.13
2022-07-29T02:58:07.340Z,16.90
2022-07-29T02:59:07.274Z,16.93
2022-07-29T03:00:07.349Z,16.83
2022-07-29T03:01:07.306Z,16.93
2022-07-29T03:02:07.396Z,17.07
2022-07-29T03:03:07.248Z,17.03
2022-07-29T03:04:07.355Z,17.13
2022-07-29T03:05:07.320Z,17.29
2022-07-29T03:06:07.233Z,17.30
2022-07-29T03:07:07.292Z,17.11
2022-07-29T03:08:07.216Z,17.18
2022-07-29T03:09:12.522Z,17.03
2022-07-29T03:10:11.051Z,17.13
2022-07-29T03:11:07.207Z,17.22
2022-07-29T03:12:08.210Z,17.13
2022-07-29T03:13:07.179Z,17.17
2022-07-29T03:14:07.203Z,17.14
2022-07-29T03:15:07.145Z,17.07
2022-07-29T03:16:07.206Z,16.81
2022-07-29T03:17:07.207Z,16.77
2022-07-29T03:18:07.217Z,16.77
2022-07-29T03:19:07.193Z,16.85
2022-07-29T03:20:07.142Z,16.89
2022-07-29T03:21:07.180Z,16.93
2022-07-29T03:22:07.124Z,16.89
2022-07-29T03:23:07.172Z,16.98
2022-07-29T03:24:12.573Z,16.88
2022-07-29T03:25:09.145Z,16.90
2022-07-29T03:26:07.102Z,16.90
2022-07-29T03:27:07.251Z,16.81
2022-07-29T03:28:07.091Z,16.90
2022-07-29T03:29:07.074Z,16.83
2022-07-29T03:30:07.077Z,16.88
2022-07-29T03:31:07.126Z,16.89
2022-07-29T03:32:08.222Z,16.93
2022-07-29T03:33:13.423Z,16.96
2022-07-29T03:34:08.051Z,16.90
2022-07-29T03:35:06.979Z,16.93
2022-07-29T03:36:06.969Z,16.83
2022-07-29T03:37:07.143Z,16.80
2022-07-29T03:38:06.946Z,16.80
2022-07-29T03:39:06.926Z,16.83
2022-07-29T03:40:06.924Z,16.88
2022-07-29T03:41:06.944Z,16.86
2022-07-29T03:42:06.952Z,16.75
2022-07-29T03:43:06.961Z,16.80
2022-07-29T03:44:07.041Z,16.90
2022-07-29T03:45:06.972Z,16.95
2022-07-29T03:46:07.090Z,16.99
2022-07-29T03:47:06.976Z,16.96
2022-07-29T03:48:07.013Z,16.96
2022-07-29T03:49:07.983Z,17.07
2022-07-29T03:50:07.045Z,17.00
2022-07-29T03:51:06.911Z,16.93
2022-07-29T03:52:06.933Z,17.14
2022-07-29T03:53:06.875Z,17.13
2022-07-29T03:54:10.154Z,16.99
2022-07-29T03:55:07.945Z,17.04
2022-07-29T03:56:06.929Z,17.20
2022-07-29T03:57:06.886Z,17.08
2022-07-29T03:58:06.888Z,17.20
2022-07-29T03:59:06.867Z,17.28
2022-07-29T04:00:06.869Z,17.13
2022-07-29T04:01:06.884Z,17.18
2022-07-29T04:02:06.946Z,17.28
2022-07-29T04:03:10.694Z,17.26
2022-07-29T04:04:06.850Z,17.29
2022-07-29T04:05:06.882Z,17.32
2022-07-29T04:06:06.821Z,17.35
2022-07-29T04:07:06.937Z,17.35
2022-07-29T04:08:06.815Z,17.33
2022-07-29T04:09:06.933Z,17.29
2022-07-29T04:10:06.787Z,17.25
2022-07-29T04:11:06.797Z,17.23
2022-07-29T04:12:07.811Z,17.15
2022-07-29T04:13:06.685Z,17.18
2022-07-29T04:14:06.698Z,17.13
2022-07-29T04:15:06.669Z,17.26
2022-07-29T04:16:06.804Z,17.25
2022-07-29T04:17:06.785Z,17.17
2022-07-29T04:18:06.628Z,17.26
2022-07-29T04:19:06.740Z,17.23
2022-07-29T04:20:06.760Z,17.28
2022-07-29T04:21:06.704Z,17.26
2022-07-29T04:22:06.748Z,17.25
2022-07-29T04:23:06.716Z,17.35
2022-07-29T04:24:06.726Z,17.41
2022-07-29T04:25:06.689Z,17.36
2022-07-29T04:26:06.835Z,17.44
2022-07-29T04:27:06.759Z,17.35
2022-07-29T04:28:06.759Z,17.43
2022-07-29T04:29:06.688Z,17.30
2022-07-29T04:30:06.722Z,17.26
2022-07-29T04:31:06.711Z,17.28
2022-07-29T04:32:06.769Z,17.25
2022-07-29T04:33:06.616Z,17.22
2022-07-29T04:34:06.733Z,17.08
2022-07-29T04:35:06.626Z,17.08
2022-07-29T04:36:06.624Z,17.08
2022-07-29T04:37:07.583Z,17.13
2022-07-29T04:38:06.603Z,17.17
2022-07-29T04:39:06.598Z,17.20
2022-07-29T04:40:06.586Z,17.36
2022-07-29T04:41:07.571Z,17.44
2022-07-29T04:42:06.665Z,17.54
2022-07-29T04:43:06.568Z,17.62
2022-07-29T04:44:12.420Z,17.59
2022-07-29T04:45:07.640Z,17.71
2022-07-29T04:46:06.555Z,17.67
2022-07-29T04:47:06.562Z,17.78
2022-07-29T04:48:07.517Z,17.84
2022-07-29T04:49:06.611Z,17.87
2022-07-29T04:50:06.529Z,17.85
2022-07-29T04:51:06.592Z,17.92
2022-07-29T04:52:06.503Z,18.02
2022-07-29T04:53:06.593Z,18.03
2022-07-29T04:54:06.477Z,18.00
2022-07-29T04:55:06.600Z,18.04
2022-07-29T04:56:06.479Z,17.92
2022-07-29T04:57:06.572Z,17.85
2022-07-29T04:58:06.501Z,17.82
2022-07-29T04:59:06.461Z,17.54
2022-07-29T05:00:06.430Z,17.59
2022-07-29T05:01:06.491Z,17.54
2022-07-29T05:02:06.453Z,17.48
2022-07-29T05:03:06.536Z,17.44
2022-07-29T05:04:06.414Z,17.35
2022-07-29T05:05:06.441Z,17.32
2022-07-29T05:06:06.401Z,17.47
2022-07-29T05:07:06.362Z,17.48
2022-07-29T05:08:06.416Z,17.64
2022-07-29T05:09:06.365Z,17.67
2022-07-29T05:10:06.345Z,17.82
2022-07-29T05:11:12.196Z,17.84
2022-07-29T05:12:07.303Z,17.82
2022-07-29T05:13:06.273Z,17.95
2022-07-29T05:14:06.241Z,17.88
2022-07-29T05:15:06.290Z,18.06
2022-07-29T05:16:06.321Z,18.09
2022-07-29T05:17:06.216Z,18.17
2022-07-29T05:18:06.282Z,18.17
2022-07-29T05:19:09.638Z,18.25
2022-07-29T05:20:07.241Z,18.28
2022-07-29T05:21:06.226Z,18.24
2022-07-29T05:22:06.267Z,18.12
2022-07-29T05:23:06.300Z,18.17
2022-07-29T05:24:06.240Z,18.25
2022-07-29T05:25:09.105Z,18.17
2022-07-29T05:26:07.199Z,18.18
2022-07-29T05:27:06.239Z,18.24
2022-07-29T05:28:06.259Z,18.34
2022-07-29T05:29:06.241Z,18.17
2022-07-29T05:30:06.222Z,18.17
2022-07-29T05:31:07.249Z,18.17
2022-07-29T05:32:06.213Z,18.15
2022-07-29T05:33:06.278Z,18.10
2022-07-29T05:34:06.298Z,18.09
2022-07-29T05:35:06.245Z,18.10
2022-07-29T05:36:06.195Z,18.04
2022-07-29T05:37:06.248Z,18.07
2022-07-29T05:38:06.253Z,18.12
2022-07-29T05:39:06.273Z,17.87
2022-07-29T05:40:06.175Z,17.94
2022-07-29T05:41:06.289Z,17.85
2022-07-29T05:42:06.123Z,17.99
2022-07-29T05:43:06.198Z,18.02
2022-07-29T05:44:06.116Z,17.94
2022-07-29T05:45:06.119Z,17.91
2022-07-29T05:46:06.170Z,17.95
2022-07-29T05:47:06.097Z,17.87
2022-07-29T05:48:06.111Z,17.88
2022-07-29T05:49:06.183Z,17.91
2022-07-29T05:50:06.107Z,17.97
2022-07-29T05:51:06.074Z,17.89
2022-07-29T05:52:06.073Z,17.92
2022-07-29T05:53:20.038Z,17.76
2022-07-29T05:54:06.967Z,17.78
2022-07-29T05:55:06.069Z,17.76
2022-07-29T05:56:06.126Z,17.81
2022-07-29T05:57:06.077Z,17.78
2022-07-29T05:58:06.158Z,17.74
2022-07-29T05:59:06.077Z,17.66
2022-07-29T06:00:07.134Z,17.53
2022-07-29T06:01:06.100Z,17.54
2022-07-29T06:02:06.165Z,17.40
2022-07-29T06:03:06.058Z,17.22
2022-07-29T06:04:06.142Z,17.35
2022-07-29T06:05:07.012Z,17.23
2022-07-29T06:06:06.997Z,17.17
2022-07-29T06:07:06.025Z,17.26
2022-07-29T06:08:06.019Z,17.22
2022-07-29T06:09:12.301Z,17.35
2022-07-29T06:10:06.911Z,17.41
2022-07-29T06:11:05.869Z,17.53
2022-07-29T06:12:05.851Z,17.62
2022-07-29T06:13:05.897Z,17.64
2022-07-29T06:14:05.850Z,17.82
2022-07-29T06:15:05.843Z,17.88
2022-07-29T06:16:05.977Z,17.85
2022-07-29T06:17:05.918Z,18.06
2022-07-29T06:18:05.997Z,18.04
2022-07-29T06:19:05.953Z,18.15
2022-07-29T06:20:07.478Z,18.27
2022-07-29T06:21:05.960Z,18.21
2022-07-29T06:22:05.859Z,18.29
2022-07-29T06:23:06.968Z,18.28
2022-07-29T06:24:05.924Z,18.39
2022-07-29T06:25:05.945Z,18.37
2022-07-29T06:26:05.882Z,18.49
2022-07-29T06:27:05.963Z,18.43
2022-07-29T06:28:05.903Z,18.37
2022-07-29T06:29:05.839Z,18.31
2022-07-29T06:30:05.799Z,18.40
2022-07-29T06:31:05.945Z,18.43
2022-07-29T06:32:05.832Z,18.50
2022-07-29T06:33:05.829Z,18.50
2022-07-29T06:34:05.815Z,18.44
2022-07-29T06:35:31.951Z,18.42
2022-07-29T06:36:07.704Z,18.44
2022-07-29T06:37:05.770Z,18.43
2022-07-29T06:38:30.292Z,18.58
2022-07-29T06:39:06.723Z,18.58
2022-07-29T06:40:05.742Z,18.62
2022-07-29T06:41:05.801Z,18.73
2022-07-29T06:42:05.808Z,18.77
2022-07-29T06:43:05.894Z,18.87
2022-07-29T06:44:05.824Z,18.91
2022-07-29T06:45:09.282Z,18.90
2022-07-29T06:46:06.804Z,18.77
2022-07-29T06:47:05.652Z,18.70
2022-07-29T06:48:05.663Z,18.79
2022-07-29T06:49:05.726Z,18.67
2022-07-29T06:50:05.628Z,18.50
2022-07-29T06:51:05.588Z,18.42
2022-07-29T06:52:05.554Z,18.25
2022-07-29T06:53:05.710Z,18.21
2022-07-29T06:54:05.641Z,18.21
2022-07-29T06:55:05.631Z,18.17
2022-07-29T06:56:05.651Z,18.13
2022-07-29T06:57:05.659Z,18.07
2022-07-29T06:58:05.684Z,17.91
2022-07-29T06:59:05.624Z,17.84
2022-07-29T07:00:05.598Z,17.78
2022-07-29T07:01:05.785Z,17.74
2022-07-29T07:02:05.610Z,17.74
2022-07-29T07:03:05.743Z,17.54
2022-07-29T07:04:05.559Z,17.74
2022-07-29T07:05:05.638Z,17.76
2022-07-29T07:06:05.582Z,17.85
2022-07-29T07:07:06.585Z,17.92
2022-07-29T07:08:05.586Z,18.03
2022-07-29T07:09:05.653Z,18.03
2022-07-29T07:10:05.531Z,17.92
2022-07-29T07:11:05.653Z,18.09
2022-07-29T07:12:05.538Z,18.09
2022-07-29T07:13:05.698Z,18.21
2022-07-29T07:14:05.518Z,18.17
2022-07-29T07:15:05.502Z,18.18
2022-07-29T07:16:05.482Z,18.19
2022-07-29T07:17:05.513Z,18.15
2022-07-29T07:18:05.495Z,18.19
2022-07-29T07:19:05.530Z,18.24
2022-07-29T07:20:05.480Z,18.19
2022-07-29T07:21:05.379Z,18.24
2022-07-29T07:22:05.554Z,18.15
2022-07-29T07:23:05.363Z,18.06
2022-07-29T07:24:05.417Z,17.99
2022-07-29T07:25:06.401Z,17.82
2022-07-29T07:26:05.363Z,17.71
2022-07-29T07:27:05.379Z,17.64
2022-07-29T07:28:05.321Z,17.55
2022-07-29T07:29:05.344Z,17.55
2022-07-29T07:30:05.360Z,17.41
2022-07-29T07:31:06.332Z,17.36
2022-07-29T07:32:05.370Z,17.30
2022-07-29T07:33:05.311Z,17.25
2022-07-29T07:34:05.336Z,17.18
2022-07-29T07:35:05.392Z,17.23
2022-07-29T07:36:05.380Z,17.25
2022-07-29T07:37:05.374Z,17.28
2022-07-29T07:38:05.344Z,17.28
2022-07-29T07:39:05.399Z,17.14
2022-07-29T07:40:05.370Z,17.15
2022-07-29T07:41:05.341Z,17.18
2022-07-29T07:42:10.081Z,17.29
2022-07-29T07:43:05.330Z,17.25
2022-07-29T07:44:05.591Z,17.25
2022-07-29T07:45:13.502Z,17.26
2022-07-29T07:46:07.367Z,17.30
2022-07-29T07:47:12.284Z,17.22
2022-07-29T07:48:06.261Z,17.40
2022-07-29T07:49:05.405Z,17.46
2022-07-29T07:50:05.314Z,17.46
2022-07-29T07:51:05.317Z,17.57
2022-07-29T07:52:05.296Z,17.51
2022-07-29T07:53:05.356Z,17.57
2022-07-29T07:54:05.670Z,17.59
2022-07-29T07:55:05.367Z,17.66
2022-07-29T07:56:10.932Z,17.67
2022-07-29T07:57:07.299Z,17.67
2022-07-29T07:58:05.293Z,17.46
2022-07-29T07:59:05.192Z,17.20
2022-07-29T08:00:05.261Z,17.14
2022-07-29T08:01:05.344Z,17.18
2022-07-29T08:02:05.302Z,17.20
2022-07-29T08:03:05.270Z,17.26
2022-07-29T08:04:06.168Z,17.18
2022-07-29T08:05:05.211Z,17.32
2022-07-29T08:06:06.175Z,17.40
2022-07-29T08:07:06.138Z,17.53
2022-07-29T08:08:05.159Z,17.66
2022-07-29T08:09:27.663Z,17.78
2022-07-29T08:10:07.151Z,17.88
2022-07-29T08:11:09.443Z,17.95
2022-07-29T08:12:06.136Z,17.99
2022-07-29T08:13:05.080Z,18.10
2022-07-29T08:14:06.083Z,18.24
2022-07-29T08:15:05.094Z,18.07
2022-07-29T08:16:05.077Z,18.25
2022-07-29T08:17:05.018Z,18.28
2022-07-29T08:18:08.649Z,18.46
2022-07-29T08:19:05.995Z,18.64
2022-07-29T08:20:04.960Z,18.74
2022-07-29T08:21:04.979Z,18.73
2022-07-29T08:22:05.092Z,18.82
2022-07-29T08:23:04.941Z,19.01
2022-07-29T08:24:07.243Z,19.14
2022-07-29T08:25:06.041Z,19.29
2022-07-29T08:26:04.972Z,19.17
2022-07-29T08:27:16.593Z,19.06
2022-07-29T08:28:05.974Z,19.24
2022-07-29T08:29:05.059Z,19.15
2022-07-29T08:30:05.020Z,19.21
2022-07-29T08:31:04.971Z,19.10
2022-07-29T08:32:05.055Z,19.11
2022-07-29T08:33:04.958Z,19.39
2022-07-29T08:34:04.950Z,19.61
2022-07-29T08:35:04.989Z,19.78
2022-07-29T08:36:04.945Z,19.91
2022-07-29T08:37:05.052Z,20.03
2022-07-29T08:38:04.925Z,20.20
2022-07-29T08:39:05.028Z,20.38
2022-07-29T08:40:04.962Z,20.39
2022-07-29T08:41:05.001Z,20.50
2022-07-29T08:42:04.962Z,20.64
2022-07-29T08:43:04.862Z,20.62
2022-07-29T08:44:04.896Z,20.64
2022-07-29T08:45:04.861Z,20.62
2022-07-29T08:46:04.900Z,20.66
2022-07-29T08:47:04.765Z,20.86
2022-07-29T08:48:04.789Z,20.95
2022-07-29T08:49:05.947Z,20.95
2022-07-29T08:50:04.762Z,21.05
2022-07-29T08:51:04.829Z,21.19
2022-07-29T08:52:04.807Z,21.27
2022-07-29T08:53:04.901Z,21.36
2022-07-29T08:54:04.832Z,21.42
2022-07-29T08:55:04.806Z,21.44
2022-07-29T08:56:04.855Z,21.51
2022-07-29T08:57:04.791Z,21.59
2022-07-29T08:58:04.863Z,21.64
2022-07-29T08:59:05.400Z,21.60
2022-07-29T09:00:10.732Z,21.75
2022-07-29T09:01:07.657Z,21.64
2022-07-29T09:02:05.934Z,21.66
2022-07-29T09:03:04.794Z,21.79
2022-07-29T09:04:04.937Z,21.79
2022-07-29T09:05:04.797Z,21.90
2022-07-29T09:06:04.708Z,21.91
2022-07-29T09:07:04.717Z,21.76
2022-07-29T09:08:04.752Z,21.79
2022-07-29T09:09:04.718Z,21.66
2022-07-29T09:10:04.690Z,21.56
2022-07-29T09:11:05.602Z,21.66
2022-07-29T09:12:04.705Z,21.66
2022-07-29T09:13:04.653Z,21.88
2022-07-29T09:14:04.738Z,21.94
2022-07-29T09:15:04.680Z,21.92
2022-07-29T09:16:09.075Z,21.92
2022-07-29T09:17:07.328Z,21.99
2022-07-29T09:18:04.544Z,22.07
2022-07-29T09:19:04.581Z,21.99
2022-07-29T09:20:04.591Z,22.07
2022-07-29T09:21:04.549Z,22.06
2022-07-29T09:22:04.563Z,22.17
2022-07-29T09:23:04.590Z,22.20
2022-07-29T09:24:04.520Z,22.17
2022-07-29T09:25:05.557Z,22.09
2022-07-29T09:26:04.511Z,22.13
2022-07-29T09:27:04.669Z,22.25
2022-07-29T09:28:04.571Z,22.37
2022-07-29T09:29:04.585Z,22.53
2022-07-29T09:30:04.592Z,22.60
2022-07-29T09:31:04.523Z,22.75
2022-07-29T09:32:04.579Z,22.89
2022-07-29T09:33:04.523Z,23.01
2022-07-29T09:34:04.539Z,22.99
2022-07-29T09:35:05.623Z,23.07
2022-07-29T09:36:04.509Z,23.08
2022-07-29T09:37:04.534Z,22.97
2022-07-29T09:38:04.495Z,22.80
2022-07-29T09:39:04.464Z,22.69
2022-07-29T09:40:07.862Z,22.71
2022-07-29T09:41:06.500Z,23.01
2022-07-29T09:42:04.530Z,23.09
2022-07-29T09:43:04.453Z,23.34
2022-07-29T09:44:04.515Z,23.02
2022-07-29T09:45:04.445Z,22.89
2022-07-29T09:46:07.119Z,23.05
2022-07-29T09:47:04.485Z,23.22
2022-07-29T09:48:04.682Z,23.29
2022-07-29T09:49:04.434Z,23.23
2022-07-29T09:50:04.562Z,23.20
2022-07-29T09:51:04.692Z,23.19
2022-07-29T09:52:04.322Z,22.93
2022-07-29T09:53:04.275Z,22.83
2022-07-29T09:54:04.320Z,22.78
2022-07-29T09:55:04.357Z,23.04
2022-07-29T09:56:04.331Z,22.57
2022-07-29T09:57:04.321Z,22.71
2022-07-29T09:58:04.325Z,22.93
2022-07-29T09:59:04.281Z,23.11
2022-07-29T10:00:04.363Z,22.90
2022-07-29T10:01:04.470Z,23.09
2022-07-29T10:02:04.337Z,22.99
2022-07-29T10:03:04.376Z,22.41
2022-07-29T10:04:04.327Z,22.50
2022-07-29T10:05:04.334Z,22.47
2022-07-29T10:06:04.335Z,22.37
2022-07-29T10:07:05.381Z,22.35
2022-07-29T10:08:05.320Z,22.34
2022-07-29T10:09:04.376Z,22.39
2022-07-29T10:10:04.274Z,22.37
2022-07-29T10:11:04.365Z,22.67
2022-07-29T10:12:04.385Z,22.65
2022-07-29T10:13:07.945Z,22.67
2022-07-29T10:14:06.287Z,22.47
2022-07-29T10:15:04.226Z,22.46
2022-07-29T10:16:04.291Z,22.47
2022-07-29T10:17:04.239Z,22.47
2022-07-29T10:18:04.246Z,22.41
2022-07-29T10:19:04.220Z,22.31
2022-07-29T10:20:04.214Z,22.54
2022-07-29T10:21:04.206Z,22.50
2022-07-29T10:22:04.499Z,22.57
2022-07-29T10:23:05.243Z,22.71
2022-07-29T10:24:04.204Z,22.83
2022-07-29T10:25:04.175Z,22.68
2022-07-29T10:26:04.228Z,22.54
2022-07-29T10:27:04.193Z,22.57
2022-07-29T10:28:04.284Z,22.59
2022-07-29T10:29:04.153Z,22.80
2022-07-29T10:30:04.067Z,23.17
2022-07-29T10:31:04.112Z,23.02
2022-07-29T10:32:04.035Z,22.75
2022-07-29T10:33:04.073Z,22.74
2022-07-29T10:34:04.040Z,22.52
2022-07-29T10:35:04.011Z,22.59
2022-07-29T10:36:04.095Z,22.75
2022-07-29T10:37:04.058Z,22.74
2022-07-29T10:38:04.004Z,23.09
2022-07-29T10:39:04.046Z,23.14
2022-07-29T10:40:04.013Z,23.32
2022-07-29T10:41:04.071Z,23.76
2022-07-29T10:42:04.036Z,23.75
2022-07-29T10:43:03.995Z,23.65
2022-07-29T10:44:04.086Z,23.43
2022-07-29T10:45:04.370Z,23.60
2022-07-29T10:46:04.076Z,23.52
2022-07-29T10:47:04.092Z,23.52
2022-07-29T10:48:05.026Z,23.53
2022-07-29T10:49:04.110Z,23.64
2022-07-29T10:50:04.016Z,23.90
2022-07-29T10:51:04.183Z,24.12
2022-07-29T10:52:05.776Z,24.04
2022-07-29T10:53:08.746Z,23.87
2022-07-29T10:54:05.227Z,23.53
2022-07-29T10:55:04.965Z,23.32
2022-07-29T10:56:06.340Z,23.24
2022-07-29T10:57:04.026Z,23.34
2022-07-29T10:58:03.971Z,23.19
2022-07-29T10:59:04.072Z,23.08
2022-07-29T11:00:03.980Z,23.22
2022-07-29T11:01:04.044Z,23.31
2022-07-29T11:02:35.577Z,23.42
2022-07-29T11:03:10.902Z,23.42
2022-07-29T11:04:04.942Z,23.52
2022-07-29T11:05:03.941Z,23.76
2022-07-29T11:06:08.789Z,23.79
2022-07-29T11:07:04.873Z,24.14
2022-07-29T11:08:03.845Z,24.29
2022-07-29T12:29:47.983Z,26.74
2022-07-29T12:30:45.177Z,26.81
2022-07-29T12:31:45.163Z,26.84
2022-07-29T12:32:45.326Z,26.89
2022-07-29T12:33:44.142Z,27.02
2022-07-29T12:34:44.202Z,26.77
2022-07-29T12:35:45.788Z,26.77
2022-07-29T12:36:44.104Z,26.84
2022-07-29T12:37:44.260Z,26.67
2022-07-29T12:38:44.170Z,26.58
2022-07-29T12:39:45.123Z,26.54
2022-07-29T12:40:44.188Z,26.43
2022-07-29T12:41:44.092Z,26.54
2022-07-29T12:42:44.202Z,26.91
2022-07-29T12:43:44.162Z,26.96
2022-07-29T12:44:44.201Z,26.61
2022-07-29T12:45:44.122Z,26.47
2022-07-29T12:46:44.191Z,26.52
2022-07-29T12:47:44.153Z,26.69
2022-07-29T12:48:44.223Z,27.02
2022-07-29T12:49:44.106Z,27.10
2022-07-29T12:50:44.224Z,27.43
2022-07-29T12:51:44.086Z,27.61
2022-07-29T12:52:44.161Z,27.79
2022-07-29T12:53:44.077Z,27.88
2022-07-29T12:54:45.152Z,27.80
2022-07-29T12:55:44.111Z,27.50
2022-07-29T12:56:44.974Z,27.35
2022-07-29T12:57:45.137Z,27.41
2022-07-29T12:58:46.081Z,27.46
2022-07-29T12:59:44.092Z,27.32
2022-07-29T13:00:44.141Z,27.21
2022-07-29T13:01:44.041Z,26.95
2022-07-29T13:02:44.124Z,26.95
2022-07-29T13:03:44.044Z,26.92
2022-07-29T13:04:44.905Z,27.09
2022-07-29T13:05:48.895Z,27.20
2022-07-29T13:06:50.855Z,27.23
2022-07-29T13:07:55.725Z,27.35
2022-07-29T13:08:45.003Z,27.23
2022-07-29T13:09:44.024Z,27.23
2022-07-29T13:10:44.013Z,27.39
2022-07-29T13:11:48.199Z,27.41
2022-07-29T13:12:44.981Z,27.64
2022-07-29T13:13:44.152Z,27.39
2022-07-29T13:14:44.877Z,27.57
2022-07-29T13:15:43.845Z,27.99
2022-07-29T13:16:43.924Z,28.19
2022-07-29T13:17:43.853Z,28.41
2022-07-29T13:18:43.976Z,28.69
2022-07-29T13:19:43.849Z,28.91
2022-07-29T13:20:43.835Z,28.95
2022-07-29T13:21:43.863Z,29.11
2022-07-29T13:22:43.829Z,29.25
2022-07-29T13:23:43.903Z,29.15
2022-07-29T13:24:43.820Z,29.25
2022-07-29T13:25:43.868Z,29.19
2022-07-29T13:26:43.823Z,28.96
2022-07-29T13:27:43.872Z,28.81
2022-07-29T13:28:43.943Z,28.78
2022-07-29T13:29:43.855Z,28.95
2022-07-29T13:30:44.512Z,28.84
2022-07-29T13:31:43.878Z,28.90
2022-07-29T13:32:43.894Z,28.75
2022-07-29T13:33:43.845Z,28.90
2022-07-29T13:34:43.912Z,28.91
2022-07-29T13:35:43.829Z,29.01
2022-07-29T13:36:43.913Z,28.78
2022-07-29T13:37:43.768Z,28.60
2022-07-29T13:38:44.008Z,28.72
2022-07-29T13:39:43.792Z,28.75
2022-07-29T13:40:44.835Z,28.69
2022-07-29T13:41:43.749Z,29.03
2022-07-29T13:42:43.798Z,28.87
2022-07-29T13:43:43.801Z,29.34
2022-07-29T13:44:43.839Z,29.94
2022-07-29T13:45:43.802Z,30.74
2022-07-29T13:46:43.765Z,31.67
2022-07-29T13:47:49.206Z,32.49
2022-07-29T13:48:45.792Z,32.67
2022-07-29T13:49:43.745Z,32.95
2022-07-29T13:50:43.751Z,33.41
2022-07-29T13:51:43.743Z,33.97
2022-07-29T13:52:43.709Z,34.29
2022-07-29T13:53:43.740Z,34.63
2022-07-29T13:54:43.768Z,34.98
2022-07-29T13:55:43.760Z,35.28
2022-07-29T13:56:43.720Z,35.66
2022-07-29T13:57:43.714Z,36.15
2022-07-29T13:58:43.680Z,36.42
2022-07-29T13:59:43.656Z,36.51
2022-07-29T14:00:43.600Z,36.80
2022-07-29T14:01:45.482Z,36.90
2022-07-29T14:02:43.562Z,37.42
2022-07-29T14:03:44.595Z,37.67
2022-07-29T14:04:43.678Z,36.76
2022-07-29T14:05:43.606Z,36.72
2022-07-29T14:06:43.546Z,36.92
2022-07-29T14:07:43.576Z,36.87
2022-07-29T14:08:43.522Z,36.75
2022-07-29T14:09:43.525Z,36.61
2022-07-29T14:10:43.564Z,36.97
2022-07-29T14:11:43.534Z,37.19
2022-07-29T14:12:43.482Z,37.71